Liberal Mid-America Regional Airport
KLBL : now visible

Airfield :











YOU CAN JOIN US ON...

 
LOGIN :

Register | Disclaimer

   EN    FR    IT 

 









Legend :    VFR   Marginal VFR   IFR   Intensive IFR   Very Intensive IFR
Visi :
Ceiling :
>= 8 km
>= 3000ft
5 to 8 km
1000 to 3000 ft
1500m to 5 km
500 to 1000 ft
800 to 1500m
200 to 500 ft
< 800m
< 200 ft
Symbols :   Thunderstorms  Fog  Heavy snow  Heavy precipitations  Wind > 20 kt






- Airport Elevation : 2885 ft
- IATA code : LBL


KLBL - Liberal Mid-America Regional

CURRENT METAR :
  • 251956Z AUTO 04015KT 4SM UP BR BKN008 OVC014 00/M01 A3011 RMK AO2 UPE24B54 SLP213 P0000 T00001006 FZRANO

EXPIRED METARs :
  • 251856Z AUTO 03014KT 4SM UP BR BKN006 OVC014 00/M01 A3013 RMK AO2 UPB05E29B54 CIG 005V010 SLP221 P0000 T00001006 FZRANO
  • 251756Z AUTO 03014KT 4SM BR BKN006 OVC012 00/M01 A3014 RMK AO2 UPB1659E10 CIG 004V009 SLP225 P0000 60002 T00001006 10006 20000 58007 FZRANO
  • 251656Z AUTO 02014KT 4SM BR BKN006 OVC014 00/M01 A3016 RMK AO2 UPE54 CIG 004V009 SLP228 P0000 T00001006 FZRANO

TAF KLBL
Valid from the 25 at 18:00 until the 26 at 18:00 UTC


251734Z 2518/2618 04013G21KT 3SM -FZDZ OVC006
FM260500 02017G25KT 3SM -SN OVC008
FM261200 01020G28KT 5SM -SN OVC010
KZKC FIR / North America



MET'MAP, your aeronautical weather chart ! - Copyright ORBIFLY December 2007 - Disclaimer

ORBIFLY MET'MAP TEAM :

Programming & Development : Alexandra Zaïnal
Concept & original design : Baudouin d'Aumeries
Assistance for programming : Marc-Olivier Méhu
Technical & hardware support : Manuel Goepfert

Contact : metmap@orbifly.com




SOURCES & CREDITS :

   NOAA       Earth
Advisory